Terminal Aerodrome Forecast
Issued by NWS

Home | Current Version | Previous Version | Text Only | Print | Product List | Glossary On
Versions: 1 2 3 4 5 6 7 8 9 10 11 12 13 14 15 16 17 18 19
000
FTUS46 KEKA 271139
TAFCEC
TAF
KCEC 271139Z 2712/2812 08007KT P6SM SKC
     FM271700 13005KT P6SM SCT250
     FM272000 17006KT P6SM SCT050 BKN200
     FM280300 08003KT P6SM OVC050
     FM280700 05003KT P6SM -RA FEW025 OVC050=

USA.gov is the U.S. government's official web portal to all federal, state and local government web resources and services.